createdAt,value
2023-01-10T00:01:29.400Z,98417.38
2023-01-10T00:03:56.838Z,98423.72
2023-01-10T00:06:24.221Z,98421.88
2023-01-10T00:08:51.238Z,98424.75
2023-01-10T00:11:37.557Z,98433.19
2023-01-10T00:14:05.945Z,98435.84
2023-01-10T00:16:33.125Z,98434.81
2023-01-10T00:19:00.136Z,98434.81
2023-01-10T00:21:28.666Z,98439.53
2023-01-10T00:23:57.999Z,98440.34
2023-01-10T00:26:25.242Z,98448.56
2023-01-10T00:28:52.434Z,98455.94
2023-01-10T00:31:19.618Z,98451.66
2023-01-10T00:33:46.813Z,98461.25
2023-01-10T00:36:14.024Z,98456.38
2023-01-10T00:38:41.080Z,98454.31
2023-01-10T00:41:28.295Z,98460.88
2023-01-10T00:43:58.320Z,98469.09
2023-01-10T00:46:27.388Z,98467.69
2023-01-10T00:48:55.014Z,98473.22
2023-01-10T00:51:22.334Z,98472.03
2023-01-10T00:53:49.303Z,98475.59
2023-01-10T00:56:16.818Z,98480.31
2023-01-10T00:58:44.793Z,98473.00
2023-01-10T01:01:12.099Z,98484.03
2023-01-10T01:03:39.148Z,98479.16
2023-01-10T01:06:07.237Z,98485.72
2023-01-10T01:08:34.883Z,98486.97
2023-01-10T01:11:02.331Z,98480.03
2023-01-10T01:13:29.557Z,98485.94
2023-01-10T01:16:00.748Z,98484.91
2023-01-10T01:18:28.578Z,98491.25
2023-01-10T01:21:00.192Z,98482.47
2023-01-10T01:23:27.757Z,98491.84
2023-01-10T01:25:56.622Z,98496.34
2023-01-10T01:28:23.970Z,98495.53
2023-01-10T01:30:51.709Z,98502.91
2023-01-10T01:33:20.312Z,98495.53
2023-01-10T01:35:49.966Z,98490.22
2023-01-10T01:38:18.185Z,98489.38
2023-01-10T01:40:45.494Z,98493.91
2023-01-10T01:43:28.624Z,98497.59
2023-01-10T01:46:01.028Z,98506.59
2023-01-10T01:48:43.285Z,98503.63
2023-01-10T01:51:26.807Z,98499.97
2023-01-10T01:54:07.654Z,98495.09
2023-01-10T01:56:45.126Z,98499.88
2023-01-10T01:59:29.680Z,98500.47
2023-01-10T02:02:10.837Z,98511.00
2023-01-10T02:04:49.651Z,98514.47
2023-01-10T02:07:18.612Z,98505.50
2023-01-10T02:10:02.873Z,98511.63
2023-01-10T02:12:32.575Z,98514.88
2023-01-10T02:15:00.310Z,98518.53
2023-01-10T02:17:27.440Z,98507.91
2023-01-10T02:20:07.103Z,98522.97
2023-01-10T02:22:52.955Z,98523.81
2023-01-10T02:25:55.399Z,98525.31
2023-01-10T02:29:01.902Z,98530.63
2023-01-10T02:32:12.723Z,98531.00
2023-01-10T02:35:06.127Z,98523.63
2023-01-10T02:38:14.300Z,98532.41
2023-01-10T02:41:09.471Z,98536.31
2023-01-10T02:43:50.425Z,98535.94
2023-01-10T02:46:28.459Z,98550.25
2023-01-10T02:48:57.628Z,98548.03
2023-01-10T02:51:30.863Z,98550.88
2023-01-10T02:54:16.293Z,98546.63
2023-01-10T02:57:23.540Z,98545.81
2023-01-10T03:00:20.029Z,98553.75
2023-01-10T03:03:08.830Z,98561.13
2023-01-10T03:05:55.348Z,98565.88
2023-01-10T03:08:40.599Z,98569.09
2023-01-10T03:11:11.413Z,98569.53
2023-01-10T03:13:50.964Z,98570.72
2023-01-10T03:16:25.217Z,98573.38
2023-01-10T03:19:00.677Z,98576.41
2023-01-10T03:21:31.451Z,98584.22
2023-01-10T03:24:06.073Z,98584.72
2023-01-10T03:26:52.999Z,98589.63
2023-01-10T03:29:36.916Z,98589.25
2023-01-10T03:32:09.470Z,98593.97
2023-01-10T03:34:38.231Z,98596.63
2023-01-10T03:37:19.655Z,98607.66
2023-01-10T03:40:05.450Z,98612.56
2023-01-10T03:43:26.721Z,98611.75
2023-01-10T03:46:41.883Z,98627.31
2023-01-10T03:49:11.494Z,98631.22
2023-01-10T03:51:40.509Z,98637.53
2023-01-10T03:54:08.049Z,98644.91
2023-01-10T03:56:50.126Z,98644.47
2023-01-10T03:59:25.782Z,98657.50
2023-01-10T04:01:55.211Z,98654.06
2023-01-10T04:04:22.547Z,98648.91
2023-01-10T04:06:49.810Z,98652.19
2023-01-10T04:09:16.751Z,98670.13
2023-01-10T04:11:44.181Z,98665.47
2023-01-10T04:14:11.218Z,98668.28
2023-01-10T04:16:38.758Z,98677.44
2023-01-10T04:19:05.827Z,98668.47
2023-01-10T04:21:33.033Z,98668.13
2023-01-10T04:24:00.132Z,98669.13
2023-01-10T04:26:27.461Z,98673.78
2023-01-10T04:28:54.418Z,98672.97
2023-01-10T04:31:22.867Z,98676.66
2023-01-10T04:33:49.903Z,98688.53
2023-01-10T04:36:17.041Z,98695.44
2023-01-10T04:38:44.223Z,98699.50
2023-01-10T04:41:11.434Z,98704.41
2023-01-10T04:43:38.359Z,98700.72
2023-01-10T04:46:05.893Z,98708.94
2023-01-10T04:48:33.709Z,98720.56
2023-01-10T04:51:00.915Z,98717.53
2023-01-10T04:53:27.883Z,98716.72
2023-01-10T04:55:55.196Z,98721.00
2023-01-10T04:58:22.117Z,98731.63
2023-01-10T05:00:49.476Z,98729.97
2023-01-10T05:03:20.143Z,98736.47
2023-01-10T05:05:47.777Z,98744.03
2023-01-10T05:08:14.835Z,98746.50
2023-01-10T05:10:42.050Z,98755.06
2023-01-10T05:13:08.943Z,98757.91
2023-01-10T05:15:36.318Z,98755.88
2023-01-10T05:18:03.290Z,98764.44
2023-01-10T05:20:30.557Z,98770.00
2023-01-10T05:22:57.551Z,98788.59
2023-01-10T05:25:24.747Z,98784.50
2023-01-10T05:27:51.629Z,98781.25
2023-01-10T05:30:19.201Z,98781.06
2023-01-10T05:32:46.377Z,98786.19
2023-01-10T05:35:14.032Z,98785.41
2023-01-10T05:37:41.229Z,98794.97
2023-01-10T05:40:09.914Z,98808.22
2023-01-10T05:42:36.799Z,98807.81
2023-01-10T05:45:05.272Z,98807.41
2023-01-10T05:47:32.252Z,98813.13
2023-01-10T05:49:59.602Z,98817.44
2023-01-10T05:52:26.623Z,98828.22
2023-01-10T05:54:53.819Z,98824.16
2023-01-10T05:57:21.976Z,98831.50
2023-01-10T05:59:49.167Z,98836.81
2023-01-10T06:02:16.187Z,98838.47
2023-01-10T06:04:44.594Z,98841.28
2023-01-10T06:07:11.634Z,98841.31
2023-01-10T06:09:38.926Z,98846.03
2023-01-10T06:12:05.993Z,98855.41
2023-01-10T06:14:33.450Z,98851.53
2023-01-10T06:17:00.407Z,98857.44
2023-01-10T06:19:27.746Z,98854.38
2023-01-10T06:21:54.692Z,98869.84
2023-01-10T06:24:21.824Z,98869.44
2023-01-10T06:26:48.793Z,98874.53
2023-01-10T06:29:16.171Z,98880.91
2023-01-10T06:31:43.077Z,98884.97
2023-01-10T06:34:10.288Z,98897.41
2023-01-10T06:36:37.273Z,98894.56
2023-01-10T06:39:05.056Z,98892.75
2023-01-10T06:41:32.111Z,98899.66
2023-01-10T06:43:59.427Z,98913.50
2023-01-10T06:46:26.353Z,98920.28
2023-01-10T06:48:53.580Z,98916.16
2023-01-10T06:51:20.616Z,98919.44
2023-01-10T06:53:48.000Z,98914.31
2023-01-10T06:56:15.130Z,98913.09
2023-01-10T06:58:42.533Z,98915.75
2023-01-10T07:01:19.716Z,98925.78
2023-01-10T07:03:48.211Z,98927.00
2023-01-10T07:06:15.563Z,98932.28
2023-01-10T07:08:46.412Z,98935.94
2023-01-10T07:11:18.501Z,98936.78
2023-01-10T07:13:45.776Z,98934.94
2023-01-10T07:16:16.470Z,98938.84
2023-01-10T07:18:44.299Z,98952.09
2023-01-10T07:21:11.963Z,98948.22
2023-01-10T07:23:40.144Z,98942.91
2023-01-10T07:26:11.221Z,98954.75
2023-01-10T07:28:38.650Z,98957.59
2023-01-10T07:31:06.445Z,98961.91
2023-01-10T07:33:33.850Z,98959.81
2023-01-10T07:36:03.331Z,98955.94
2023-01-10T07:38:30.736Z,98967.34
2023-01-10T07:40:57.669Z,98965.13
2023-01-10T07:43:24.835Z,98972.25
2023-01-10T07:45:51.971Z,98962.47
2023-01-10T07:48:19.316Z,98960.41
2023-01-10T07:50:46.391Z,98969.84
2023-01-10T07:53:13.678Z,98979.22
2023-01-10T07:55:41.143Z,98973.09
2023-01-10T07:58:08.494Z,98967.00
2023-01-10T08:00:36.085Z,98972.31
2023-01-10T08:03:03.508Z,98977.59
2023-01-10T08:05:30.726Z,98982.69
2023-01-10T08:08:03.538Z,98984.53
2023-01-10T08:10:30.482Z,98991.47
2023-01-10T08:13:01.550Z,98994.13
2023-01-10T08:15:31.604Z,98998.81
2023-01-10T08:18:07.487Z,98999.63
2023-01-10T08:20:34.602Z,99001.66
2023-01-10T08:23:05.880Z,99003.31
2023-01-10T08:25:32.983Z,99009.44
2023-01-10T08:28:00.221Z,99012.69
2023-01-10T08:30:27.290Z,99018.00
2023-01-10T08:32:54.654Z,99022.88
2023-01-10T08:35:21.708Z,99025.34
2023-01-10T08:37:49.013Z,99023.31
2023-01-10T08:40:16.306Z,99035.53
2023-01-10T08:42:43.482Z,99043.47
2023-01-10T08:45:10.886Z,99045.75
2023-01-10T08:47:38.146Z,99047.38
2023-01-10T08:50:08.010Z,99058.00
2023-01-10T08:52:35.325Z,99068.00
2023-01-10T08:55:02.648Z,99064.50
2023-01-10T08:57:30.236Z,99060.44
2023-01-10T08:59:57.126Z,99065.72
2023-01-10T09:02:24.447Z,99071.22
2023-01-10T09:04:51.557Z,99083.69
2023-01-10T09:07:18.816Z,99090.00
2023-01-10T09:09:45.775Z,99089.00
2023-01-10T09:12:31.954Z,99090.34
2023-01-10T09:14:59.107Z,99097.47
2023-01-10T09:17:26.314Z,99093.38
2023-01-10T09:19:53.347Z,99090.13
2023-01-10T09:22:20.564Z,99094.59
2023-01-10T09:24:48.268Z,99094.22
2023-01-10T09:27:15.970Z,99098.91
2023-01-10T09:29:43.019Z,99098.69
2023-01-10T09:32:10.278Z,99100.34
2023-01-10T09:34:37.346Z,99105.69
2023-01-10T09:37:04.514Z,99118.16
2023-01-10T09:39:32.292Z,99121.81
2023-01-10T09:42:47.865Z,99109.75
2023-01-10T09:45:53.358Z,99105.22
2023-01-10T09:48:30.607Z,99105.63
2023-01-10T09:51:11.736Z,99111.78
2023-01-10T09:53:45.341Z,99116.03
2023-01-10T09:56:15.973Z,99124.00
2023-01-10T09:58:45.928Z,99128.91
2023-01-10T10:01:29.084Z,99131.72
2023-01-10T10:04:12.239Z,99132.56
2023-01-10T10:06:39.391Z,99141.56
2023-01-10T10:09:13.734Z,99150.13
2023-01-10T10:12:25.539Z,99149.50
2023-01-10T10:15:05.913Z,99156.25
2023-01-10T10:18:08.040Z,99157.03
2023-01-10T10:20:53.883Z,99155.03
2023-01-10T10:24:05.265Z,99159.69
2023-01-10T10:26:44.279Z,99161.94
2023-01-10T10:29:45.068Z,99164.81
2023-01-10T10:32:41.070Z,99161.09
2023-01-10T10:35:30.156Z,99159.06
2023-01-10T10:38:08.240Z,99161.91
2023-01-10T10:40:42.159Z,99164.72
2023-01-10T10:43:25.489Z,99174.50
2023-01-10T10:46:05.618Z,99174.28
2023-01-10T10:48:39.527Z,99176.94
2023-01-10T10:51:25.856Z,99184.28
2023-01-10T10:53:56.619Z,99191.22
2023-01-10T10:56:26.796Z,99191.22
2023-01-10T10:58:59.501Z,99195.72
2023-01-10T11:01:27.185Z,99198.97
2023-01-10T11:04:05.446Z,99203.06
2023-01-10T11:06:36.952Z,99200.03
2023-01-10T11:09:06.876Z,99202.47
2023-01-10T11:11:40.823Z,99201.25
2023-01-10T11:14:09.491Z,99210.41
2023-01-10T11:16:40.365Z,99208.38
2023-01-10T11:19:17.524Z,99228.38
2023-01-10T11:22:06.431Z,99234.13
2023-01-10T11:24:41.686Z,99232.47
2023-01-10T11:27:47.995Z,99238.22
2023-01-10T11:30:24.950Z,99242.69
2023-01-10T11:33:01.847Z,99249.66
2023-01-10T11:36:05.009Z,99248.81
2023-01-10T11:38:32.873Z,99255.94
2023-01-10T11:41:25.713Z,99259.59
2023-01-10T11:44:41.080Z,99263.06
2023-01-10T11:47:14.779Z,99272.84
2023-01-10T11:49:44.067Z,99273.88
2023-01-10T11:52:29.665Z,99271.25
2023-01-10T11:55:00.375Z,99267.56
2023-01-10T11:57:32.318Z,99281.47
2023-01-10T12:00:05.538Z,99280.03
2023-01-10T12:02:46.722Z,99285.50
2023-01-10T12:05:22.497Z,99297.91
2023-01-10T12:08:06.287Z,99301.16
2023-01-10T12:10:35.370Z,99302.19
2023-01-10T12:13:15.516Z,99305.84
2023-01-10T12:15:42.733Z,99303.81
2023-01-10T12:18:12.212Z,99314.03
2023-01-10T12:20:51.726Z,99309.75
2023-01-10T12:23:25.112Z,99317.69
2023-01-10T12:26:07.214Z,99326.09
2023-01-10T12:28:51.018Z,99331.84
2023-01-10T12:31:21.694Z,99332.47
2023-01-10T12:34:04.391Z,99338.00
2023-01-10T12:36:44.958Z,99338.63
2023-01-10T12:39:31.061Z,99338.63
2023-01-10T12:42:27.960Z,99341.56
2023-01-10T12:45:26.730Z,99336.63
2023-01-10T12:48:13.485Z,99336.34
2023-01-10T12:50:58.690Z,99340.66
2023-01-10T12:53:39.956Z,99336.97
2023-01-10T12:56:14.778Z,99340.28
2023-01-10T12:58:56.475Z,99343.09
2023-01-10T13:01:31.588Z,99345.97
2023-01-10T13:04:18.308Z,99338.19
2023-01-10T13:06:46.165Z,99336.63
2023-01-10T13:09:24.618Z,99339.91
2023-01-10T13:12:34.263Z,99351.53
2023-01-10T13:15:50.313Z,99354.19
2023-01-10T13:18:27.805Z,99364.38
2023-01-10T13:21:14.268Z,99372.16
2023-01-10T13:23:51.991Z,99373.00
2023-01-10T13:26:19.634Z,99375.66
2023-01-10T13:29:01.619Z,99387.50
2023-01-10T13:31:34.990Z,99389.94
2023-01-10T13:34:11.970Z,99392.44
2023-01-10T13:36:58.399Z,99388.13
2023-01-10T13:39:36.582Z,99395.47
2023-01-10T13:42:21.990Z,99401.59
2023-01-10T13:45:01.816Z,99404.03
2023-01-10T13:47:40.873Z,99411.41
2023-01-10T13:50:25.781Z,99415.13
2023-01-10T13:52:53.905Z,99417.16
2023-01-10T13:55:53.667Z,99418.53
2023-01-10T13:58:43.893Z,99419.56
2023-01-10T14:01:56.191Z,99422.84
2023-01-10T14:04:45.613Z,99431.81
2023-01-10T14:07:29.097Z,99438.78
2023-01-10T14:10:29.020Z,99431.44
2023-01-10T14:13:10.568Z,99435.97
2023-01-10T14:15:46.601Z,99432.50
2023-01-10T14:18:39.095Z,99435.97
2023-01-10T14:21:24.436Z,99433.31
2023-01-10T14:23:54.860Z,99436.34
2023-01-10T14:26:30.915Z,99445.97
2023-01-10T14:29:05.638Z,99462.88
2023-01-10T14:31:36.882Z,99464.53
2023-01-10T14:34:11.701Z,99460.25
2023-01-10T14:36:53.677Z,99459.25
2023-01-10T14:39:22.216Z,99451.66
2023-01-10T14:41:57.298Z,99450.63
2023-01-10T14:44:38.717Z,99454.69
2023-01-10T14:47:05.853Z,99462.41
2023-01-10T14:49:49.255Z,99456.84
2023-01-10T14:52:20.368Z,99458.88
2023-01-10T14:55:10.818Z,99451.91
2023-01-10T14:57:38.522Z,99466.81
2023-01-10T15:00:17.923Z,99463.34
2023-01-10T15:02:47.803Z,99457.22
2023-01-10T15:05:25.704Z,99456.22
2023-01-10T15:08:22.696Z,99455.22
2023-01-10T15:10:55.714Z,99464.94
2023-01-10T15:13:28.132Z,99467.94
2023-01-10T15:15:56.730Z,99461.38
2023-01-10T15:18:45.792Z,99461.38
2023-01-10T15:21:18.383Z,99478.94
2023-01-10T15:23:48.211Z,99474.00
2023-01-10T15:26:26.434Z,99480.97
2023-01-10T15:29:21.995Z,99481.75
2023-01-10T15:31:51.822Z,99487.88
2023-01-10T15:34:29.024Z,99485.22
2023-01-10T15:37:00.431Z,99484.97
2023-01-10T15:39:34.013Z,99491.94
2023-01-10T15:42:08.657Z,99496.41
2023-01-10T15:44:45.812Z,99503.53
2023-01-10T15:47:48.002Z,99506.19
2023-01-10T15:51:13.581Z,99509.25
2023-01-10T15:54:04.694Z,99521.47
2023-01-10T15:57:08.144Z,99528.81
2023-01-10T15:59:50.205Z,99533.28
2023-01-10T16:02:33.206Z,99529.38
2023-01-10T16:05:17.965Z,99540.53
2023-01-10T16:07:46.881Z,99541.53
2023-01-10T16:10:27.686Z,99545.03
2023-01-10T16:13:28.706Z,99546.47
2023-01-10T16:15:58.635Z,99546.91
2023-01-10T16:18:26.506Z,99540.41
2023-01-10T16:20:59.390Z,99551.66
2023-01-10T16:23:32.017Z,99544.09
2023-01-10T16:26:04.666Z,99542.44
2023-01-10T16:28:36.131Z,99560.00
2023-01-10T16:31:06.871Z,99573.25
2023-01-10T16:33:34.419Z,99573.88
2023-01-10T16:36:01.746Z,99582.47
2023-01-10T16:38:29.453Z,99587.34
2023-01-10T16:41:22.323Z,99590.41
2023-01-10T16:43:50.677Z,99597.53
2023-01-10T16:46:18.420Z,99602.03
2023-01-10T16:48:47.633Z,99605.06
2023-01-10T16:51:25.724Z,99609.34
2023-01-10T16:53:53.253Z,99607.97
2023-01-10T16:56:27.489Z,99619.16
2023-01-10T16:58:58.788Z,99620.97
2023-01-10T17:01:32.626Z,99621.59
2023-01-10T17:04:00.101Z,99632.22
2023-01-10T17:06:28.720Z,99638.16
2023-01-10T17:08:55.918Z,99631.84
2023-01-10T17:11:31.198Z,99632.69
2023-01-10T17:13:59.524Z,99638.78
2023-01-10T17:16:27.111Z,99656.34
2023-01-10T17:18:54.081Z,99646.38
2023-01-10T17:21:23.088Z,99647.75
2023-01-10T17:23:51.089Z,99653.06
2023-01-10T17:26:19.622Z,99654.69
2023-01-10T17:28:49.523Z,99659.00
2023-01-10T17:31:20.095Z,99658.38
2023-01-10T17:33:51.128Z,99653.88
2023-01-10T17:36:19.597Z,99663.66
2023-01-10T17:38:46.941Z,99663.66
2023-01-10T17:41:14.613Z,99660.38
2023-01-10T17:43:41.536Z,99667.69
2023-01-10T17:46:10.853Z,99673.63
2023-01-10T17:48:38.250Z,99676.03
2023-01-10T17:51:06.210Z,99677.00
2023-01-10T17:53:33.996Z,99675.81
2023-01-10T17:56:03.025Z,99677.47
2023-01-10T17:58:31.185Z,99682.78
2023-01-10T18:00:58.488Z,99683.22
2023-01-10T18:03:25.984Z,99679.94
2023-01-10T18:05:59.033Z,99680.22
2023-01-10T18:08:26.954Z,99688.53
2023-01-10T18:11:00.560Z,99687.53
2023-01-10T18:13:30.782Z,99688.16
2023-01-10T18:15:59.063Z,99691.81
2023-01-10T18:18:27.962Z,99679.56
2023-01-10T18:20:58.321Z,99681.19
2023-01-10T18:23:26.795Z,99680.22
2023-01-10T18:26:06.066Z,99684.53
2023-01-10T18:28:43.365Z,99682.50
2023-01-10T18:31:16.214Z,99682.50
2023-01-10T18:33:44.821Z,99691.44
2023-01-10T18:36:19.134Z,99691.44
2023-01-10T18:38:47.879Z,99691.44
2023-01-10T18:41:17.188Z,99690.63
2023-01-10T18:43:44.291Z,99686.16
2023-01-10T18:46:18.350Z,99687.97
2023-01-10T18:48:46.520Z,99696.38
2023-01-10T18:51:14.607Z,99693.38
2023-01-10T18:53:43.622Z,99689.81
2023-01-10T18:56:12.081Z,99688.88
2023-01-10T18:58:43.067Z,99695.84
2023-01-10T19:01:21.742Z,99704.78
2023-01-10T19:03:50.136Z,99708.47
2023-01-10T19:06:22.571Z,99707.66
2023-01-10T19:08:51.388Z,99712.94
2023-01-10T19:11:19.554Z,99714.13
2023-01-10T19:13:49.697Z,99721.47
2023-01-10T19:16:28.188Z,99723.47
2023-01-10T19:19:03.342Z,99725.09
2023-01-10T19:21:33.724Z,99722.16
2023-01-10T19:24:04.782Z,99718.53
2023-01-10T19:26:33.333Z,99727.84
2023-01-10T19:29:03.841Z,99724.53
2023-01-10T19:31:31.216Z,99725.91
2023-01-10T19:34:00.392Z,99737.50
2023-01-10T19:36:28.778Z,99731.84
2023-01-10T19:38:57.800Z,99738.81
2023-01-10T19:41:28.501Z,99731.84
2023-01-10T19:44:03.880Z,99731.22
2023-01-10T19:46:36.882Z,99735.25
2023-01-10T19:49:07.974Z,99734.22
2023-01-10T19:51:41.019Z,99742.19
2023-01-10T19:54:09.133Z,99738.53
2023-01-10T19:56:36.385Z,99735.88
2023-01-10T19:59:03.469Z,99739.53
2023-01-10T20:01:31.924Z,99743.84
2023-01-10T20:04:03.484Z,99744.47
2023-01-10T20:06:36.288Z,99752.22
2023-01-10T20:09:04.122Z,99748.59
2023-01-10T20:11:37.132Z,99755.56
2023-01-10T20:14:08.137Z,99751.88
2023-01-10T20:16:35.729Z,99747.59
2023-01-10T20:19:03.111Z,99750.06
2023-01-10T20:21:30.340Z,99756.00
2023-01-10T20:23:57.351Z,99763.94
2023-01-10T20:26:30.347Z,99763.78
2023-01-10T20:29:02.933Z,99761.31
2023-01-10T20:31:31.287Z,99766.78
2023-01-10T20:33:58.527Z,99772.25
2023-01-10T20:36:27.059Z,99768.97
2023-01-10T20:38:54.417Z,99777.94
2023-01-10T20:41:27.763Z,99777.13
2023-01-10T20:43:56.955Z,99780.59
2023-01-10T20:46:28.900Z,99786.53
2023-01-10T20:48:56.769Z,99790.38
2023-01-10T20:51:31.671Z,99792.19
2023-01-10T20:53:59.968Z,99782.41
2023-01-10T20:56:30.723Z,99784.88
2023-01-10T20:58:58.737Z,99793.84
2023-01-10T21:01:34.584Z,99790.53
2023-01-10T21:04:08.045Z,99794.00
2023-01-10T21:06:36.829Z,99797.50
2023-01-10T21:09:05.812Z,99793.19
2023-01-10T21:11:44.365Z,99795.81
2023-01-10T21:14:19.203Z,99799.16
2023-01-10T21:16:47.037Z,99791.34
2023-01-10T21:19:15.628Z,99794.84
2023-01-10T21:21:44.145Z,99798.47
2023-01-10T21:24:11.180Z,99792.38
2023-01-10T21:26:38.383Z,99802.31
2023-01-10T21:29:05.494Z,99797.84
2023-01-10T21:31:32.689Z,99804.16
2023-01-10T21:33:59.699Z,99797.84
2023-01-10T21:36:26.976Z,99798.66
2023-01-10T21:38:54.204Z,99799.50
2023-01-10T21:41:40.147Z,99792.53
2023-01-10T21:44:08.413Z,99790.91
2023-01-10T21:46:36.844Z,99796.56
2023-01-10T21:49:05.340Z,99804.88
2023-01-10T21:51:32.732Z,99802.22
2023-01-10T21:53:59.797Z,99808.53
2023-01-10T21:56:27.164Z,99810.72
2023-01-10T21:58:54.137Z,99811.88
2023-01-10T22:01:21.353Z,99810.22
2023-01-10T22:03:49.512Z,99814.72
2023-01-10T22:06:16.928Z,99813.91
2023-01-10T22:08:44.122Z,99807.78
2023-01-10T22:11:11.602Z,99805.31
2023-01-10T22:13:38.998Z,99803.66
2023-01-10T22:16:07.497Z,99808.94
2023-01-10T22:18:34.594Z,99813.41
2023-01-10T22:21:02.145Z,99819.91
2023-01-10T22:23:30.929Z,99814.94
2023-01-10T22:26:11.720Z,99810.47
2023-01-10T22:28:38.849Z,99808.38
2023-01-10T22:31:06.382Z,99805.91
2023-01-10T22:33:37.193Z,99808.38
2023-01-10T22:36:16.781Z,99806.75
2023-01-10T22:38:45.645Z,99806.75
2023-01-10T22:41:20.209Z,99803.06
2023-01-10T22:43:47.911Z,99810.88
2023-01-10T22:46:18.382Z,99806.34
2023-01-10T22:48:45.686Z,99803.72
2023-01-10T22:51:15.206Z,99809.66
2023-01-10T22:53:42.911Z,99799.06
2023-01-10T22:56:11.209Z,99812.97
2023-01-10T22:58:38.543Z,99817.09
2023-01-10T23:01:07.623Z,99811.78
2023-01-10T23:03:34.792Z,99817.44
2023-01-10T23:06:02.095Z,99814.59
2023-01-10T23:08:29.175Z,99811.31
2023-01-10T23:10:56.496Z,99819.44
2023-01-10T23:13:25.540Z,99811.66
2023-01-10T23:15:58.479Z,99811.03
2023-01-10T23:18:27.384Z,99818.97
2023-01-10T23:20:55.782Z,99821.28
2023-01-10T23:23:24.663Z,99811.66
2023-01-10T23:26:03.263Z,99805.72
2023-01-10T23:28:40.105Z,99817.34
2023-01-10T23:31:08.183Z,99812.84
2023-01-10T23:33:35.725Z,99815.50
2023-01-10T23:36:08.575Z,99816.50
2023-01-10T23:38:35.981Z,99814.00
2023-01-10T23:41:06.112Z,99822.34
2023-01-10T23:43:33.471Z,99820.97
2023-01-10T23:46:04.410Z,99821.63
2023-01-10T23:48:31.538Z,99815.69
2023-01-10T23:51:00.959Z,99814.00
2023-01-10T23:53:28.344Z,99806.06
2023-01-10T23:55:55.622Z,99805.56
2023-01-10T23:58:22.664Z,99806.75
